Time;durP1;ratioP1;P1;durP2;ratioP2;P2;SDS_P1;SDS_P2;PMS_P1;PMS_P2;Temp;Humidity;BMP_temperature;BMP_pressure;BME280_temperature;BME280_humidity;BME280_pressure;Samples;Min_cycle;Max_cycle;Signal;HPM_P1;HPM_P2
2021/10/24 00:00:58;;;;;;;24.08;16.23;;;6.60;99.90;;;;;;4976964;28;20142;-78
2021/10/24 00:03:26;;;;;;;24.55;15.27;;;6.60;99.90;;;;;;4978078;28;20166;-79
2021/10/24 00:05:54;;;;;;;26.27;15.40;;;6.60;99.90;;;;;;4979908;28;20142;-78
2021/10/24 00:08:21;;;;;;;28.75;15.63;;;6.50;99.90;;;;;;4985874;28;20051;-80
2021/10/24 00:10:48;;;;;;;27.90;16.05;;;6.50;99.90;;;;;;4996001;28;20061;-79
2021/10/24 00:13:15;;;;;;;26.55;16.10;;;6.50;99.90;;;;;;4995854;28;20035;-79
2021/10/24 00:15:42;;;;;;;21.08;15.60;;;6.50;99.90;;;;;;4993229;28;20078;-80
2021/10/24 00:18:09;;;;;;;20.88;16.20;;;6.40;99.90;;;;;;4977873;28;20082;-79
2021/10/24 00:20:37;;;;;;;22.08;15.98;;;6.40;99.90;;;;;;4980233;28;20114;-79
2021/10/24 00:23:04;;;;;;;22.45;16.10;;;6.40;99.90;;;;;;4984919;28;20214;-78
2021/10/24 00:25:31;;;;;;;23.92;16.50;;;6.40;99.90;;;;;;4980345;28;20051;-78
2021/10/24 00:27:58;;;;;;;25.90;17.15;;;6.30;99.90;;;;;;4977816;28;20181;-78
2021/10/24 00:30:25;;;;;;;30.73;16.25;;;6.30;99.90;;;;;;4976658;28;20133;-78
2021/10/24 00:32:52;;;;;;;26.33;16.42;;;6.30;99.90;;;;;;4976141;28;20553;-79
2021/10/24 00:35:19;;;;;;;26.48;15.93;;;6.40;99.90;;;;;;4976088;28;20061;-78
2021/10/24 00:37:47;;;;;;;23.25;16.90;;;6.30;99.90;;;;;;4975509;28;20072;-79
2021/10/24 00:40:14;;;;;;;26.92;16.90;;;6.40;99.90;;;;;;4979537;28;20082;-79
2021/10/24 00:42:47;;;;;;;25.83;16.35;;;6.40;99.90;;;;;;4976023;28;20130;-79
2021/10/24 00:45:14;;;;;;;27.67;17.10;;;6.30;99.90;;;;;;4976010;28;20090;-77
2021/10/24 00:47:40;;;;;;;25.25;17.08;;;6.30;99.90;;;;;;4975763;28;20432;-78
2021/10/24 00:50:08;;;;;;;24.42;16.85;;;6.30;99.90;;;;;;4976118;28;20497;-79
2021/10/24 00:52:36;;;;;;;26.33;17.13;;;6.30;99.90;;;;;;4975958;28;20055;-79
2021/10/24 00:55:05;;;;;;;27.33;16.45;;;6.20;99.90;;;;;;4975899;28;20146;-78
2021/10/24 00:57:32;;;;;;;29.30;18.73;;;6.20;99.90;;;;;;4975853;28;20129;-79
2021/10/24 00:59:59;;;;;;;28.95;17.75;;;6.20;99.90;;;;;;4975609;28;20142;-78
2021/10/24 01:02:26;;;;;;;25.08;16.92;;;6.20;99.90;;;;;;4975683;28;20082;-79
2021/10/24 01:04:54;;;;;;;31.35;17.67;;;6.20;99.90;;;;;;4974826;28;20117;-78
2021/10/24 01:07:21;;;;;;;27.58;16.38;;;6.10;99.90;;;;;;4975240;28;20501;-79
2021/10/24 01:09:48;;;;;;;22.77;17.10;;;6.10;99.90;;;;;;4975645;28;20154;-79
2021/10/24 01:12:17;;;;;;;29.27;16.65;;;6.10;99.90;;;;;;4975863;28;20137;-78
2021/10/24 01:14:43;;;;;;;23.75;17.40;;;6.00;99.90;;;;;;4975187;28;20054;-78
2021/10/24 01:17:10;;;;;;;24.65;16.70;;;6.00;99.90;;;;;;4975072;28;20078;-78
2021/10/24 01:19:37;;;;;;;27.40;16.45;;;6.00;99.90;;;;;;4975257;28;20054;-78
2021/10/24 01:22:08;;;;;;;24.40;16.83;;;5.90;99.90;;;;;;4975387;28;20157;-79
2021/10/24 01:24:35;;;;;;;24.20;16.92;;;5.90;99.90;;;;;;4975235;28;20133;-78
2021/10/24 01:27:02;;;;;;;25.98;17.15;;;5.80;99.90;;;;;;4974889;28;20069;-78
2021/10/24 01:29:28;;;;;;;29.73;17.30;;;5.80;99.90;;;;;;4975051;28;20051;-78
2021/10/24 01:31:55;;;;;;;24.77;16.13;;;5.80;99.90;;;;;;4975142;28;20415;-78
2021/10/24 01:34:22;;;;;;;31.20;18.23;;;5.70;99.90;;;;;;4974987;28;20137;-78
2021/10/24 01:36:49;;;;;;;29.13;16.77;;;5.70;99.90;;;;;;4974680;28;20134;-78
2021/10/24 01:39:17;;;;;;;26.50;16.52;;;5.70;99.90;;;;;;4975258;28;20074;-78
2021/10/24 01:41:44;;;;;;;24.75;17.55;;;5.70;99.90;;;;;;4974642;28;20055;-78
2021/10/24 01:44:12;;;;;;;31.58;18.77;;;5.60;99.90;;;;;;4974878;28;20105;-79
2021/10/24 01:46:38;;;;;;;27.35;17.88;;;5.60;99.90;;;;;;4975263;28;20050;-78
2021/10/24 01:49:05;;;;;;;27.63;17.85;;;5.70;99.90;;;;;;4976988;28;20141;-80
2021/10/24 01:51:32;;;;;;;27.20;17.95;;;5.70;99.90;;;;;;4975582;28;20114;-79
2021/10/24 01:53:59;;;;;;;29.05;17.90;;;5.60;99.90;;;;;;4975179;28;20054;-78
2021/10/24 01:56:27;;;;;;;29.08;18.33;;;5.60;99.90;;;;;;4974348;28;20061;-78
2021/10/24 01:58:54;;;;;;;25.48;17.42;;;5.60;99.90;;;;;;4974619;28;20159;-78
2021/10/24 02:01:22;;;;;;;29.70;17.73;;;5.60;99.90;;;;;;4974251;28;20417;-78
2021/10/24 02:03:49;;;;;;;32.78;19.20;;;5.50;99.90;;;;;;4974113;28;20055;-77
2021/10/24 02:06:15;;;;;;;28.02;18.17;;;5.50;99.90;;;;;;4974189;28;20054;-78
2021/10/24 02:08:42;;;;;;;29.85;18.67;;;5.50;99.90;;;;;;4974522;28;20133;-78
2021/10/24 02:11:09;;;;;;;30.65;18.85;;;5.40;99.90;;;;;;4974349;28;20051;-79
2021/10/24 02:13:37;;;;;;;28.08;18.73;;;5.40;99.90;;;;;;4974982;28;20137;-79
2021/10/24 02:16:05;;;;;;;29.92;18.05;;;5.40;99.90;;;;;;4973385;28;20054;-78
2021/10/24 02:18:32;;;;;;;29.48;19.85;;;5.40;99.90;;;;;;4974411;28;20042;-77
2021/10/24 02:20:59;;;;;;;35.40;19.98;;;5.40;99.90;;;;;;4974344;28;20057;-78
2021/10/24 02:23:26;;;;;;;32.50;20.27;;;5.30;99.90;;;;;;4973430;28;20130;-78
2021/10/24 02:25:53;;;;;;;35.17;20.02;;;5.30;99.90;;;;;;4974249;28;20053;-78
2021/10/24 02:28:19;;;;;;;28.75;19.48;;;5.30;99.90;;;;;;4974163;28;20477;-78
2021/10/24 02:30:48;;;;;;;32.15;21.65;;;5.30;99.90;;;;;;4974261;28;20133;-77
2021/10/24 02:33:14;;;;;;;29.42;19.58;;;5.20;99.90;;;;;;4974292;28;20094;-77
2021/10/24 02:35:41;;;;;;;32.90;19.85;;;5.20;99.90;;;;;;4975319;28;20086;-76
2021/10/24 02:38:08;;;;;;;31.33;19.83;;;5.30;99.90;;;;;;4976788;28;20133;-77
2021/10/24 02:40:35;;;;;;;32.33;20.65;;;5.20;99.90;;;;;;4975904;28;20053;-77
2021/10/24 02:43:02;;;;;;;35.95;20.52;;;5.20;99.90;;;;;;4974569;28;20080;-78
2021/10/24 02:45:29;;;;;;;30.95;20.20;;;5.20;99.90;;;;;;4974673;28;20062;-78
2021/10/24 02:47:57;;;;;;;30.58;18.95;;;5.20;99.90;;;;;;4974359;28;20085;-78
2021/10/24 02:50:24;;;;;;;34.67;21.75;;;5.20;99.90;;;;;;4974193;28;20059;-79
2021/10/24 02:52:51;;;;;;;31.85;20.60;;;5.20;99.90;;;;;;4974264;28;20047;-78
2021/10/24 02:55:18;;;;;;;33.83;19.88;;;5.20;99.90;;;;;;4974060;28;20239;-77
2021/10/24 02:57:45;;;;;;;31.88;20.20;;;5.10;99.90;;;;;;4978384;28;20466;-78
2021/10/24 03:00:13;;;;;;;31.20;19.95;;;5.10;99.90;;;;;;4974155;28;20142;-78
2021/10/24 03:02:40;;;;;;;35.90;20.80;;;5.10;99.90;;;;;;4973585;28;20138;-78
2021/10/24 03:05:09;;;;;;;39.33;21.00;;;5.10;99.90;;;;;;4973758;28;20398;-78
2021/10/24 03:07:37;;;;;;;34.13;19.85;;;5.00;99.90;;;;;;4974408;28;20050;-79
2021/10/24 03:10:05;;;;;;;31.73;19.65;;;5.00;99.90;;;;;;4975163;28;20050;-78
2021/10/24 03:12:32;;;;;;;31.98;19.63;;;5.00;99.90;;;;;;4975030;28;20090;-79
2021/10/24 03:15:00;;;;;;;28.85;19.58;;;5.00;99.90;;;;;;4974251;28;20051;-78
2021/10/24 03:17:27;;;;;;;30.38;20.52;;;4.90;99.90;;;;;;4974072;28;20043;-79
2021/10/24 03:19:54;;;;;;;32.70;19.42;;;5.00;99.90;;;;;;4974859;28;20118;-79
2021/10/24 03:22:22;;;;;;;35.22;21.00;;;5.00;99.90;;;;;;4975129;28;20492;-78
2021/10/24 03:24:49;;;;;;;34.88;20.77;;;5.00;99.90;;;;;;4973964;28;20488;-78
2021/10/24 03:27:16;;;;;;;34.83;20.48;;;5.00;99.90;;;;;;4974981;28;20105;-78
2021/10/24 03:29:42;;;;;;;37.47;20.95;;;4.90;99.90;;;;;;4977666;28;20082;-78
2021/10/24 03:32:09;;;;;;;29.02;18.73;;;4.90;99.90;;;;;;4977656;28;20536;-78
2021/10/24 03:34:36;;;;;;;37.00;21.02;;;4.90;99.90;;;;;;4977498;28;20162;-78
2021/10/24 03:37:03;;;;;;;33.03;20.33;;;4.80;99.90;;;;;;4977317;28;20481;-78
2021/10/24 03:39:31;;;;;;;32.55;20.38;;;4.80;99.90;;;;;;4977140;28;20050;-78
2021/10/24 03:41:58;;;;;;;40.47;20.85;;;4.80;99.90;;;;;;4977466;28;20410;-78
2021/10/24 03:44:26;;;;;;;35.20;20.13;;;4.80;99.90;;;;;;4976495;28;20050;-77
2021/10/24 03:46:53;;;;;;;32.78;20.00;;;4.80;99.90;;;;;;4976899;28;20050;-77
2021/10/24 03:49:20;;;;;;;38.03;20.73;;;4.80;99.90;;;;;;4976980;28;20531;-78
2021/10/24 03:51:47;;;;;;;30.45;20.20;;;4.80;99.90;;;;;;4977345;28;20051;-79
2021/10/24 03:54:14;;;;;;;38.92;21.35;;;4.80;99.90;;;;;;4977220;28;20051;-79
2021/10/24 03:56:42;;;;;;;31.33;19.17;;;4.80;99.90;;;;;;4977219;28;20512;-79
2021/10/24 03:59:09;;;;;;;34.08;19.95;;;4.80;99.90;;;;;;4977850;28;20061;-79
2021/10/24 04:01:36;;;;;;;35.28;19.88;;;4.80;99.90;;;;;;4977401;28;20134;-79
2021/10/24 04:04:03;;;;;;;30.92;20.60;;;4.80;99.90;;;;;;4977198;28;20061;-79
2021/10/24 04:06:30;;;;;;;35.30;20.33;;;4.80;99.90;;;;;;4976461;28;20107;-79
2021/10/24 04:08:56;;;;;;;31.60;19.20;;;4.70;99.90;;;;;;4976974;28;20149;-79
2021/10/24 04:11:23;;;;;;;38.53;21.63;;;4.70;99.90;;;;;;4976934;28;20051;-79
2021/10/24 04:13:52;;;;;;;32.47;20.10;;;4.60;99.90;;;;;;4976840;28;20209;-80
2021/10/24 04:16:18;;;;;;;36.40;22.02;;;4.60;99.90;;;;;;4976538;28;20061;-79
2021/10/24 04:18:46;;;;;;;39.53;21.10;;;4.60;99.90;;;;;;4976952;28;20078;-79
2021/10/24 04:21:12;;;;;;;35.88;20.38;;;4.50;99.90;;;;;;4978049;28;20436;-79
2021/10/24 04:23:39;;;;;;;40.28;21.92;;;4.40;99.90;;;;;;4979771;28;20223;-79
2021/10/24 04:26:06;;;;;;;39.42;21.77;;;4.40;99.90;;;;;;4977519;28;20077;-80
2021/10/24 04:28:33;;;;;;;34.17;20.95;;;4.40;99.90;;;;;;4977706;28;20114;-79
2021/10/24 04:31:01;;;;;;;35.80;20.52;;;4.40;99.90;;;;;;4979368;28;20050;-80
2021/10/24 04:33:28;;;;;;;36.17;21.38;;;4.40;99.90;;;;;;4978599;28;20050;-79
2021/10/24 04:35:55;;;;;;;39.33;22.77;;;4.40;99.90;;;;;;4977019;28;20077;-79
2021/10/24 04:38:22;;;;;;;38.85;24.02;;;4.40;99.90;;;;;;4976267;28;20046;-78
2021/10/24 04:40:49;;;;;;;37.25;20.88;;;4.40;99.90;;;;;;4976687;28;20050;-78
2021/10/24 04:43:17;;;;;;;36.83;21.02;;;4.40;99.90;;;;;;4976529;28;20488;-78
2021/10/24 04:45:44;;;;;;;37.20;20.58;;;4.40;99.90;;;;;;4975346;28;20487;-79
2021/10/24 04:48:12;;;;;;;33.97;21.13;;;4.50;99.90;;;;;;4976562;28;20138;-79
2021/10/24 04:50:40;;;;;;;35.42;21.58;;;4.50;99.90;;;;;;4975943;28;20101;-79
2021/10/24 04:53:07;;;;;;;34.35;21.90;;;4.50;99.90;;;;;;4976442;28;20086;-78
2021/10/24 04:55:34;;;;;;;35.72;21.08;;;4.40;99.90;;;;;;4975381;28;20047;-79
2021/10/24 04:58:01;;;;;;;40.03;22.42;;;4.50;99.90;;;;;;5037803;23;20073;-80
2021/10/24 05:00:28;;;;;;;44.40;23.98;;;4.40;99.90;;;;;;5001284;28;20081;-80
2021/10/24 05:02:55;;;;;;;44.25;22.60;;;4.40;99.90;;;;;;5001100;28;20121;-80
2021/10/24 05:05:28;;;;;;;40.00;23.00;;;4.30;99.90;;;;;;5000553;28;20133;-81
2021/10/24 05:07:55;;;;;;;39.83;23.02;;;4.40;99.90;;;;;;5000149;28;20133;-81
2021/10/24 05:10:22;;;;;;;41.03;23.20;;;4.30;99.90;;;;;;5000903;28;20081;-81
2021/10/24 05:12:52;;;;;;;40.45;23.17;;;4.30;99.90;;;;;;5001035;28;20081;-81
2021/10/24 05:15:23;;;;;;;35.70;21.67;;;4.20;99.90;;;;;;5001513;28;20133;-80
2021/10/24 05:17:50;;;;;;;41.40;23.23;;;4.20;99.90;;;;;;5001044;28;20065;-81
2021/10/24 05:20:29;;;;;;;42.22;21.98;;;4.20;99.90;;;;;;5002080;28;20050;-79
2021/10/24 05:22:59;;;;;;;37.72;21.40;;;4.20;99.90;;;;;;5012735;28;20084;-79
2021/10/24 05:25:41;;;;;;;41.83;23.77;;;4.20;99.90;;;;;;5012908;28;20050;-77
2021/10/24 05:31:26;;;;;;;38.53;22.30;;;4.20;99.90;;;;;;5013481;28;20054;-79
2021/10/24 05:34:43;;;;;;;42.75;23.63;;;4.20;99.90;;;;;;5013469;28;20034;-77
2021/10/24 05:37:10;;;;;;;39.65;23.27;;;4.20;99.90;;;;;;4993624;28;20065;-79
2021/10/24 05:39:59;;;;;;;42.42;24.42;;;4.20;99.90;;;;;;5013055;28;20038;-81
2021/10/24 05:42:32;;;;;;;40.17;24.13;;;4.10;99.90;;;;;;5010930;28;20057;-80
2021/10/24 05:44:59;;;;;;;31.10;18.48;;;4.20;99.90;;;;;;5007907;28;20050;-78
2021/10/24 05:47:28;;;;;;;43.15;23.17;;;4.10;99.90;;;;;;5009324;28;20058;-79
2021/10/24 05:49:58;;;;;;;44.83;23.67;;;4.20;99.90;;;;;;5010893;28;20078;-80
2021/10/24 05:52:25;;;;;;;43.40;25.10;;;4.20;99.90;;;;;;5011524;28;20076;-81
2021/10/24 05:54:52;;;;;;;44.25;25.27;;;4.20;99.90;;;;;;5008018;28;20113;-80
2021/10/24 05:57:20;;;;;;;40.78;23.00;;;4.20;99.90;;;;;;5007525;28;20054;-80
2021/10/24 05:59:47;;;;;;;42.95;24.13;;;4.20;99.90;;;;;;5005052;28;20080;-79
2021/10/24 06:02:14;;;;;;;80.55;50.20;;;4.20;99.90;;;;;;5009081;28;20061;-80
2021/10/24 06:04:41;;;;;;;42.80;24.00;;;4.20;99.90;;;;;;5010568;28;20116;-78
2021/10/24 06:07:09;;;;;;;38.85;22.27;;;4.20;99.90;;;;;;5010210;28;20081;-79
2021/10/24 06:09:42;;;;;;;42.38;24.35;;;4.20;99.90;;;;;;5009510;28;20051;-77
2021/10/24 06:12:14;;;;;;;39.55;22.60;;;4.20;99.90;;;;;;5003458;28;20380;-80
2021/10/24 06:14:43;;;;;;;40.77;23.23;;;4.10;99.90;;;;;;5001219;28;20061;-80
2021/10/24 06:17:12;;;;;;;40.53;23.92;;;4.10;99.90;;;;;;5000838;28;20046;-79
2021/10/24 06:19:39;;;;;;;39.63;22.70;;;4.10;99.90;;;;;;5002263;28;20064;-81
2021/10/24 06:22:06;;;;;;;40.85;22.95;;;4.10;99.90;;;;;;5001182;28;20055;-80
2021/10/24 06:24:33;;;;;;;40.88;23.80;;;4.00;99.90;;;;;;5000975;28;20057;-80
2021/10/24 06:27:00;;;;;;;45.58;22.70;;;4.10;99.90;;;;;;5000681;28;20070;-81
2021/10/24 06:29:27;;;;;;;41.25;23.55;;;4.00;99.90;;;;;;5001317;28;20088;-81
2021/10/24 06:31:55;;;;;;;41.13;24.35;;;4.10;99.90;;;;;;5000130;28;20409;-82
2021/10/24 06:34:22;;;;;;;36.95;21.48;;;4.10;99.90;;;;;;5001095;28;20051;-80
2021/10/24 06:36:49;;;;;;;38.25;20.92;;;4.10;99.90;;;;;;5000659;28;20050;-81
2021/10/24 06:39:16;;;;;;;37.28;21.50;;;4.20;99.90;;;;;;5001733;28;20100;-80
2021/10/24 06:41:42;;;;;;;34.28;20.73;;;4.10;99.90;;;;;;5001018;28;20116;-83
2021/10/24 06:44:09;;;;;;;36.22;21.50;;;4.10;99.90;;;;;;5001396;28;20081;-81
2021/10/24 06:46:36;;;;;;;37.05;20.98;;;4.20;99.90;;;;;;5001040;28;20110;-80
2021/10/24 06:49:05;;;;;;;36.63;21.48;;;4.30;99.90;;;;;;5002897;28;20050;-80
2021/10/24 06:51:32;;;;;;;29.15;18.73;;;4.40;99.90;;;;;;5001053;28;20130;-79
2021/10/24 06:53:59;;;;;;;25.65;17.05;;;4.60;99.90;;;;;;5000688;28;20053;-79
2021/10/24 06:56:26;;;;;;;30.65;16.77;;;4.80;99.90;;;;;;5001597;28;20057;-79
2021/10/24 06:58:53;;;;;;;31.55;16.17;;;4.90;99.90;;;;;;5006239;28;20054;-78
2021/10/24 07:01:20;;;;;;;25.63;16.08;;;5.00;99.90;;;;;;5003459;28;20054;-78
2021/10/24 07:03:48;;;;;;;22.95;14.60;;;5.20;99.90;;;;;;4986554;28;20117;-80
2021/10/24 07:06:17;;;;;;;23.33;13.88;;;5.30;99.90;;;;;;4984071;28;20158;-79
2021/10/24 07:08:44;;;;;;;18.25;12.65;;;5.50;99.90;;;;;;4985665;28;20054;-82
2021/10/24 07:11:11;;;;;;;21.05;13.43;;;5.70;99.90;;;;;;4985728;28;20050;-81
2021/10/24 07:13:39;;;;;;;19.45;13.65;;;5.90;99.90;;;;;;4981940;28;20085;-80
2021/10/24 07:16:06;;;;;;;18.85;12.98;;;5.90;99.90;;;;;;4984889;28;20472;-77
2021/10/24 07:18:34;;;;;;;22.17;13.85;;;6.00;99.90;;;;;;4979789;28;20058;-79
2021/10/24 07:21:01;;;;;;;24.30;13.55;;;6.00;99.90;;;;;;4980817;28;20059;-79
2021/10/24 07:23:29;;;;;;;21.48;12.93;;;6.00;99.90;;;;;;4980874;28;20047;-78
2021/10/24 07:25:57;;;;;;;18.23;12.82;;;6.10;99.90;;;;;;4979927;28;20393;-79
2021/10/24 07:28:24;;;;;;;17.85;13.13;;;6.20;99.90;;;;;;4978397;28;20126;-79
2021/10/24 07:30:52;;;;;;;22.98;12.57;;;6.40;99.90;;;;;;4978035;28;20055;-79
2021/10/24 07:33:19;;;;;;;18.40;12.57;;;6.50;99.90;;;;;;4977711;28;20134;-79
2021/10/24 07:35:47;;;;;;;19.67;12.32;;;6.70;99.90;;;;;;4978111;28;20047;-79
2021/10/24 07:38:15;;;;;;;18.63;12.63;;;6.80;99.90;;;;;;4978386;28;20050;-79
2021/10/24 07:40:45;;;;;;;18.27;12.18;;;6.90;99.90;;;;;;4979426;28;20114;-78
2021/10/24 07:43:13;;;;;;;19.38;12.38;;;7.00;99.90;;;;;;4981680;28;20117;-80
2021/10/24 07:45:40;;;;;;;15.90;11.65;;;7.30;99.90;;;;;;4984385;28;20441;-80
2021/10/24 07:48:07;;;;;;;15.93;10.77;;;7.50;99.90;;;;;;4987219;28;20106;-79
2021/10/24 07:50:37;;;;;;;16.42;11.32;;;7.80;99.90;;;;;;4987596;28;20057;-79
2021/10/24 07:53:04;;;;;;;17.27;11.93;;;7.90;99.90;;;;;;4985899;28;20055;-79
2021/10/24 07:55:31;;;;;;;17.33;10.52;;;7.80;99.90;;;;;;4987794;28;20050;-78
2021/10/24 07:58:00;;;;;;;15.52;10.88;;;7.90;99.90;;;;;;4989207;28;20121;-79
2021/10/24 08:00:27;;;;;;;15.40;10.80;;;8.00;99.90;;;;;;4989007;28;20057;-79
2021/10/24 08:02:54;;;;;;;16.13;11.45;;;8.20;99.90;;;;;;4986639;28;20062;-78
2021/10/24 08:05:21;;;;;;;16.38;10.50;;;8.30;99.90;;;;;;4984469;28;20066;-79
2021/10/24 08:07:48;;;;;;;14.70;10.00;;;8.40;99.90;;;;;;4983570;28;20046;-79
2021/10/24 08:10:17;;;;;;;16.55;10.13;;;8.50;99.90;;;;;;4984457;28;20097;-79
2021/10/24 08:12:45;;;;;;;14.82;10.35;;;8.70;99.90;;;;;;4984527;28;20113;-79
2021/10/24 08:15:15;;;;;;;14.50;9.65;;;8.80;99.90;;;;;;4983934;28;20054;-80
2021/10/24 08:17:42;;;;;;;12.38;9.15;;;8.80;99.90;;;;;;4984257;28;20054;-80
2021/10/24 08:20:10;;;;;;;13.73;10.23;;;8.90;99.90;;;;;;4983983;28;20188;-80
2021/10/24 08:22:37;;;;;;;13.68;9.38;;;8.80;99.90;;;;;;4985676;28;20138;-79
2021/10/24 08:25:04;;;;;;;14.82;10.00;;;8.70;99.90;;;;;;4985356;28;20114;-80
2021/10/24 08:27:32;;;;;;;13.60;9.52;;;8.70;99.90;;;;;;4984569;28;20420;-81
2021/10/24 08:29:59;;;;;;;18.27;9.63;;;8.80;99.90;;;;;;4984133;28;20146;-80
2021/10/24 08:32:27;;;;;;;14.57;9.40;;;8.70;99.90;;;;;;4984024;28;20055;-80
2021/10/24 08:34:54;;;;;;;13.32;9.23;;;8.50;99.90;;;;;;4982456;28;20085;-80
2021/10/24 08:37:21;;;;;;;15.50;9.40;;;8.40;99.90;;;;;;4983575;28;20129;-80
2021/10/24 08:39:52;;;;;;;14.77;9.32;;;8.20;99.90;;;;;;4983138;28;20051;-79
2021/10/24 08:42:22;;;;;;;13.32;9.13;;;8.00;99.90;;;;;;4983594;28;20055;-80
2021/10/24 08:44:49;;;;;;;14.10;8.98;;;8.00;99.90;;;;;;4983735;28;20059;-79
2021/10/24 08:47:16;;;;;;;15.23;9.40;;;8.10;99.90;;;;;;4983642;28;20137;-79
2021/10/24 08:49:44;;;;;;;14.15;8.18;;;8.10;99.90;;;;;;4983138;28;20101;-79
2021/10/24 08:52:12;;;;;;;16.13;8.90;;;8.10;99.90;;;;;;4982450;28;20078;-79
2021/10/24 08:54:42;;;;;;;13.93;8.60;;;8.20;99.90;;;;;;4981780;28;20114;-79
2021/10/24 08:57:09;;;;;;;12.45;8.70;;;8.10;99.90;;;;;;4979902;28;20054;-79
2021/10/24 08:59:37;;;;;;;15.15;8.80;;;8.10;99.90;;;;;;4979833;28;20134;-79
2021/10/24 09:02:05;;;;;;;13.13;9.15;;;8.00;99.90;;;;;;4980484;28;20141;-80
2021/10/24 09:04:32;;;;;;;14.48;8.15;;;8.00;99.90;;;;;;4981304;28;20121;-77
2021/10/24 09:07:02;;;;;;;12.60;9.07;;;8.10;99.90;;;;;;4981249;28;20134;-79
2021/10/24 09:09:31;;;;;;;12.88;8.13;;;8.20;99.90;;;;;;4984966;28;20047;-79
2021/10/24 09:12:00;;;;;;;11.48;8.18;;;8.20;99.90;;;;;;4983559;28;20046;-78
2021/10/24 09:14:38;;;;;;;12.77;8.43;;;8.30;99.90;;;;;;4980256;28;20061;-80
2021/10/24 09:17:05;;;;;;;10.98;8.40;;;8.40;99.90;;;;;;4974846;28;20065;-77
2021/10/24 09:19:37;;;;;;;11.32;8.23;;;8.50;99.90;;;;;;4976236;28;20043;-79
2021/10/24 09:22:24;;;;;;;13.02;7.85;;;8.60;99.90;;;;;;4979109;28;20101;-78
2021/10/24 09:25:03;;;;;;;13.18;8.25;;;8.70;99.90;;;;;;4979029;28;20129;-80
2021/10/24 09:27:32;;;;;;;12.57;7.80;;;8.80;99.90;;;;;;4981127;28;20134;-80
2021/10/24 09:30:06;;;;;;;10.45;8.10;;;8.80;99.90;;;;;;4978161;28;20047;-81
2021/10/24 09:32:50;;;;;;;15.40;8.00;;;8.80;99.90;;;;;;4977619;28;20105;-79
2021/10/24 09:35:17;;;;;;;14.75;7.80;;;8.90;99.90;;;;;;4980601;28;20047;-78
2021/10/24 09:37:47;;;;;;;9.63;7.30;;;8.90;99.90;;;;;;4980665;28;20115;-77
2021/10/24 09:40:15;;;;;;;11.55;7.72;;;8.90;99.90;;;;;;4982280;28;20138;-80
2021/10/24 09:42:42;;;;;;;11.75;7.70;;;9.00;99.90;;;;;;4982462;28;20146;-79
2021/10/24 09:45:12;;;;;;;11.68;7.13;;;9.10;99.90;;;;;;4979433;28;20078;-80
2021/10/24 09:47:41;;;;;;;11.43;7.43;;;9.10;99.90;;;;;;4977553;28;20114;-79
2021/10/24 09:50:11;;;;;;;15.65;7.38;;;9.20;99.90;;;;;;4978451;28;20051;-81
2021/10/24 09:52:38;;;;;;;9.88;7.70;;;9.30;99.90;;;;;;4981176;28;20110;-81
2021/10/24 09:55:17;;;;;;;10.73;6.95;;;9.30;99.90;;;;;;4981049;28;20082;-79
2021/10/24 09:57:45;;;;;;;11.93;6.70;;;9.40;99.90;;;;;;4981669;28;20062;-79
2021/10/24 10:00:13;;;;;;;9.77;7.18;;;9.50;99.90;;;;;;4981368;28;20134;-80
2021/10/24 10:02:40;;;;;;;13.05;7.13;;;9.60;99.90;;;;;;4982445;28;20081;-79
2021/10/24 10:05:08;;;;;;;10.15;7.32;;;9.60;99.90;;;;;;4986067;28;20050;-80
2021/10/24 10:07:35;;;;;;;11.15;6.75;;;9.70;99.90;;;;;;4987304;28;20115;-79
2021/10/24 10:10:02;;;;;;;9.40;6.93;;;9.80;99.90;;;;;;4983565;28;20531;-79
2021/10/24 10:12:34;;;;;;;9.55;6.80;;;9.80;99.90;;;;;;4983268;28;20585;-81
2021/10/24 10:15:04;;;;;;;11.57;7.25;;;9.80;99.90;;;;;;4981261;28;20076;-78
2021/10/24 10:17:32;;;;;;;9.13;6.75;;;9.90;99.90;;;;;;4983423;28;20046;-79
2021/10/24 10:20:19;;;;;;;12.20;7.00;;;10.00;99.90;;;;;;4981731;28;20042;-79
2021/10/24 10:23:06;;;;;;;14.02;6.75;;;10.10;99.90;;;;;;4978882;28;20054;-79
2021/10/24 10:25:36;;;;;;;11.57;6.70;;;10.10;99.90;;;;;;4980474;28;20054;-78
2021/10/24 10:28:05;;;;;;;9.02;6.55;;;10.30;99.90;;;;;;4980785;28;20074;-78
2021/10/24 10:30:38;;;;;;;10.40;6.18;;;10.40;99.90;;;;;;4980077;28;20066;-79
2021/10/24 10:33:29;;;;;;;9.20;6.22;;;10.60;99.90;;;;;;4979453;28;20063;-77
2021/10/24 10:35:56;;;;;;;13.57;6.45;;;10.70;99.90;;;;;;4974828;28;20110;-78
2021/10/24 10:38:40;;;;;;;8.98;6.30;;;10.80;99.90;;;;;;4980548;28;20047;-77
2021/10/24 10:41:08;;;;;;;11.65;6.10;;;10.80;99.90;;;;;;4982808;28;20143;-77
2021/10/24 10:43:37;;;;;;;8.07;5.90;;;10.80;99.90;;;;;;4977518;28;20046;-78
2021/10/24 10:46:05;;;;;;;10.77;6.30;;;10.90;99.90;;;;;;4979180;28;20106;-78
2021/10/24 10:48:36;;;;;;;10.13;6.35;;;11.00;99.90;;;;;;4980128;28;20106;-78
2021/10/24 10:51:13;;;;;;;8.82;6.38;;;11.10;99.90;;;;;;4982303;28;20043;-79
2021/10/24 10:54:07;;;;;;;9.82;5.80;;;11.10;99.90;;;;;;4980160;28;20050;-78
2021/10/24 10:56:52;;;;;;;8.15;5.70;;;11.10;99.90;;;;;;4978579;28;20107;-79
2021/10/24 10:59:38;;;;;;;8.13;5.40;;;11.20;99.90;;;;;;4975297;28;20042;-77
2021/10/24 11:04:48;;;;;;;9.63;6.22;;;11.30;99.90;;;;;;4989315;28;20058;-76
2021/10/24 11:07:37;;;;;;;9.57;5.57;;;11.30;99.90;;;;;;4992179;28;20473;-76
2021/10/24 11:10:04;;;;;;;9.63;5.88;;;11.40;99.90;;;;;;5003132;28;20137;-76
2021/10/24 11:12:40;;;;;;;8.38;5.40;;;11.40;99.90;;;;;;5011126;28;20456;-77
2021/10/24 11:15:29;;;;;;;8.80;5.32;;;11.50;99.90;;;;;;4999927;28;20060;-76
2021/10/24 11:17:58;;;;;;;8.32;5.43;;;11.60;99.90;;;;;;4991986;28;20109;-77
2021/10/24 11:20:40;;;;;;;8.38;5.50;;;11.70;99.90;;;;;;4991968;28;20460;-77
2021/10/24 11:23:11;;;;;;;12.33;5.47;;;11.90;99.90;;;;;;4991389;28;20101;-77
2021/10/24 11:25:40;;;;;;;11.07;5.43;;;11.90;99.90;;;;;;4991708;28;20065;-77
2021/10/24 11:28:09;;;;;;;8.68;4.90;;;12.00;99.90;;;;;;4991628;28;20518;-77
2021/10/24 11:30:39;;;;;;;7.65;4.82;;;12.20;99.90;;;;;;4992361;28;20076;-78
2021/10/24 11:33:07;;;;;;;8.07;5.03;;;12.30;99.90;;;;;;4991969;28;20066;-77
2021/10/24 11:35:39;;;;;;;9.63;5.07;;;12.40;99.90;;;;;;4992092;28;20137;-76
2021/10/24 11:38:13;;;;;;;10.65;5.50;;;12.50;99.90;;;;;;4992863;28;20419;-77
2021/10/24 11:40:43;;;;;;;7.95;5.10;;;12.60;99.90;;;;;;4992919;28;20046;-77
2021/10/24 11:43:12;;;;;;;7.35;4.63;;;12.60;99.90;;;;;;4992545;28;20046;-78
2021/10/24 11:45:44;;;;;;;7.85;4.93;;;12.70;99.90;;;;;;4992369;28;20150;-78
2021/10/24 11:48:16;;;;;;;9.93;5.25;;;12.60;99.90;;;;;;4992843;28;20050;-78
2021/10/24 11:50:46;;;;;;;8.07;4.60;;;12.70;99.90;;;;;;4995643;28;20071;-76
2021/10/24 11:53:18;;;;;;;9.80;5.38;;;12.80;99.90;;;;;;4995060;28;20507;-78
2021/10/24 11:55:45;;;;;;;8.85;5.43;;;12.90;99.90;;;;;;4994820;28;20057;-78
2021/10/24 11:58:28;;;;;;;8.60;5.22;;;13.00;99.90;;;;;;4995972;28;20054;-78
2021/10/24 12:01:09;;;;;;;9.70;4.97;;;13.10;99.90;;;;;;4995408;28;20050;-78
2021/10/24 12:03:39;;;;;;;9.52;5.80;;;13.10;99.90;;;;;;4995506;28;20141;-78
2021/10/24 12:06:10;;;;;;;8.55;5.15;;;13.20;99.90;;;;;;4995941;28;20050;-78
2021/10/24 12:08:50;;;;;;;8.48;5.18;;;13.20;99.90;;;;;;4996400;28;20056;-79
2021/10/24 12:11:41;;;;;;;8.60;5.15;;;13.20;99.90;;;;;;4995743;28;20097;-78
2021/10/24 12:14:08;;;;;;;7.18;5.03;;;13.30;99.90;;;;;;4996949;28;20057;-78
2021/10/24 12:16:39;;;;;;;8.73;5.30;;;13.40;99.90;;;;;;4994964;28;20496;-77
2021/10/24 12:19:19;;;;;;;7.90;4.63;;;13.50;99.90;;;;;;4994443;28;20112;-77
2021/10/24 12:21:57;;;;;;;6.38;4.50;;;13.50;99.90;;;;;;4993972;28;20135;-77
2021/10/24 12:24:26;;;;;;;10.50;5.72;;;13.50;99.90;;;;;;4994406;28;20050;-77
2021/10/24 12:27:05;;;;;;;8.82;5.10;;;13.60;99.90;;;;;;4994309;28;20056;-78
2021/10/24 12:29:32;;;;;;;8.32;4.75;;;13.60;99.90;;;;;;4994723;28;20133;-78
2021/10/24 12:32:10;;;;;;;6.93;5.07;;;13.70;99.90;;;;;;4995448;28;20061;-76
2021/10/24 12:34:40;;;;;;;10.15;5.43;;;13.70;99.90;;;;;;4995584;28;20557;-76
2021/10/24 12:37:19;;;;;;;8.02;5.00;;;13.70;99.90;;;;;;4994865;28;20145;-77
2021/10/24 12:39:49;;;;;;;9.43;4.88;;;13.70;99.90;;;;;;4993462;28;20138;-77
2021/10/24 12:42:21;;;;;;;7.70;5.05;;;13.70;99.90;;;;;;4994214;28;20457;-77
2021/10/24 12:44:48;;;;;;;9.63;4.75;;;13.80;99.90;;;;;;4994134;28;20050;-75
2021/10/24 12:47:21;;;;;;;8.57;4.90;;;13.80;99.90;;;;;;4993490;28;20054;-77
2021/10/24 12:49:56;;;;;;;7.63;4.78;;;13.80;99.90;;;;;;4993658;28;20089;-77
2021/10/24 12:52:23;;;;;;;7.53;4.78;;;13.70;99.90;;;;;;4993916;28;20050;-77
2021/10/24 12:54:59;;;;;;;7.43;4.53;;;13.80;99.90;;;;;;4993558;28;20575;-76
2021/10/24 12:57:26;;;;;;;6.15;4.45;;;13.80;99.90;;;;;;4994330;28;20101;-77